sensor_id;sensor_type;location;lat;lon;timestamp;P1;durP1;ratioP1;P2;durP2;ratioP2
59922;SDS011;45778;51.142;3.732;2024-02-21T00:02:08;4.15;;;1.90;;
59922;SDS011;45778;51.142;3.732;2024-02-21T00:04:34;4.57;;;2.28;;
59922;SDS011;45778;51.142;3.732;2024-02-21T00:07:01;6.20;;;2.28;;
59922;SDS011;45778;51.142;3.732;2024-02-21T00:09:27;5.00;;;2.00;;
59922;SDS011;45778;51.142;3.732;2024-02-21T00:11:53;4.63;;;2.72;;
59922;SDS011;45778;51.142;3.732;2024-02-21T00:14:18;4.80;;;1.92;;
59922;SDS011;45778;51.142;3.732;2024-02-21T00:16:44;5.95;;;2.70;;
59922;SDS011;45778;51.142;3.732;2024-02-21T00:19:10;4.68;;;2.10;;
59922;SDS011;45778;51.142;3.732;2024-02-21T00:21:35;5.13;;;2.28;;
59922;SDS011;45778;51.142;3.732;2024-02-21T00:24:01;3.70;;;2.00;;
59922;SDS011;45778;51.142;3.732;2024-02-21T00:26:26;5.38;;;2.08;;
59922;SDS011;45778;51.142;3.732;2024-02-21T00:28:52;10.63;;;2.42;;
59922;SDS011;45778;51.142;3.732;2024-02-21T00:31:18;5.60;;;2.55;;
59922;SDS011;45778;51.142;3.732;2024-02-21T00:33:44;5.18;;;2.05;;
59922;SDS011;45778;51.142;3.732;2024-02-21T00:36:09;3.65;;;1.80;;
59922;SDS011;45778;51.142;3.732;2024-02-21T00:38:35;6.65;;;2.22;;
59922;SDS011;45778;51.142;3.732;2024-02-21T00:41:00;4.00;;;1.90;;
59922;SDS011;45778;51.142;3.732;2024-02-21T00:43:26;4.57;;;2.00;;
59922;SDS011;45778;51.142;3.732;2024-02-21T00:45:52;3.63;;;1.90;;
59922;SDS011;45778;51.142;3.732;2024-02-21T00:48:17;4.65;;;2.15;;
59922;SDS011;45778;51.142;3.732;2024-02-21T00:50:43;4.35;;;2.33;;
59922;SDS011;45778;51.142;3.732;2024-02-21T00:53:09;2.47;;;1.50;;
59922;SDS011;45778;51.142;3.732;2024-02-21T00:55:35;4.55;;;1.67;;
59922;SDS011;45778;51.142;3.732;2024-02-21T00:58:00;2.65;;;1.70;;
59922;SDS011;45778;51.142;3.732;2024-02-21T01:00:26;2.10;;;1.23;;
59922;SDS011;45778;51.142;3.732;2024-02-21T01:02:52;3.60;;;2.17;;
59922;SDS011;45778;51.142;3.732;2024-02-21T01:05:18;3.22;;;1.88;;
59922;SDS011;45778;51.142;3.732;2024-02-21T01:07:45;6.82;;;2.22;;
59922;SDS011;45778;51.142;3.732;2024-02-21T01:10:10;3.40;;;2.00;;
59922;SDS011;45778;51.142;3.732;2024-02-21T01:12:36;3.28;;;1.83;;
59922;SDS011;45778;51.142;3.732;2024-02-21T01:15:02;3.47;;;2.13;;
59922;SDS011;45778;51.142;3.732;2024-02-21T01:17:28;3.80;;;2.13;;
59922;SDS011;45778;51.142;3.732;2024-02-21T01:19:55;2.92;;;1.77;;
59922;SDS011;45778;51.142;3.732;2024-02-21T01:22:21;4.43;;;1.92;;
59922;SDS011;45778;51.142;3.732;2024-02-21T01:24:47;4.07;;;2.33;;
59922;SDS011;45778;51.142;3.732;2024-02-21T01:27:12;4.90;;;2.75;;
59922;SDS011;45778;51.142;3.732;2024-02-21T01:29:38;3.90;;;2.50;;
59922;SDS011;45778;51.142;3.732;2024-02-21T01:32:04;7.38;;;3.38;;
59922;SDS011;45778;51.142;3.732;2024-02-21T01:34:30;6.25;;;3.10;;
59922;SDS011;45778;51.142;3.732;2024-02-21T01:36:55;8.18;;;3.63;;
59922;SDS011;45778;51.142;3.732;2024-02-21T01:39:21;11.95;;;4.60;;
59922;SDS011;45778;51.142;3.732;2024-02-21T01:41:46;8.45;;;3.78;;
59922;SDS011;45778;51.142;3.732;2024-02-21T01:44:13;12.63;;;4.68;;
59922;SDS011;45778;51.142;3.732;2024-02-21T01:46:40;12.18;;;4.35;;
59922;SDS011;45778;51.142;3.732;2024-02-21T01:49:06;11.75;;;4.95;;
59922;SDS011;45778;51.142;3.732;2024-02-21T01:51:32;12.10;;;5.43;;
59922;SDS011;45778;51.142;3.732;2024-02-21T01:53:58;14.18;;;4.85;;
59922;SDS011;45778;51.142;3.732;2024-02-21T01:56:23;15.25;;;5.88;;
59922;SDS011;45778;51.142;3.732;2024-02-21T01:58:49;10.55;;;5.55;;
59922;SDS011;45778;51.142;3.732;2024-02-21T02:01:16;10.57;;;5.25;;
59922;SDS011;45778;51.142;3.732;2024-02-21T02:03:42;14.23;;;4.75;;
59922;SDS011;45778;51.142;3.732;2024-02-21T02:06:10;11.13;;;5.20;;
59922;SDS011;45778;51.142;3.732;2024-02-21T02:08:37;9.90;;;4.15;;
59922;SDS011;45778;51.142;3.732;2024-02-21T02:11:03;10.20;;;5.00;;
59922;SDS011;45778;51.142;3.732;2024-02-21T02:13:28;14.68;;;5.95;;
59922;SDS011;45778;51.142;3.732;2024-02-21T02:15:54;18.38;;;5.57;;
59922;SDS011;45778;51.142;3.732;2024-02-21T02:18:20;11.52;;;5.03;;
59922;SDS011;45778;51.142;3.732;2024-02-21T02:20:46;12.00;;;4.97;;
59922;SDS011;45778;51.142;3.732;2024-02-21T02:23:17;11.82;;;4.55;;
59922;SDS011;45778;51.142;3.732;2024-02-21T02:25:45;11.13;;;4.45;;
59922;SDS011;45778;51.142;3.732;2024-02-21T02:28:14;12.32;;;5.68;;
59922;SDS011;45778;51.142;3.732;2024-02-21T02:30:40;8.45;;;4.38;;
59922;SDS011;45778;51.142;3.732;2024-02-21T02:33:06;13.98;;;4.40;;
59922;SDS011;45778;51.142;3.732;2024-02-21T02:35:32;12.32;;;5.25;;
59922;SDS011;45778;51.142;3.732;2024-02-21T02:38:00;13.93;;;4.97;;
59922;SDS011;45778;51.142;3.732;2024-02-21T02:40:26;15.27;;;4.93;;
59922;SDS011;45778;51.142;3.732;2024-02-21T02:42:51;10.75;;;5.13;;
59922;SDS011;45778;51.142;3.732;2024-02-21T02:45:20;17.02;;;5.13;;
59922;SDS011;45778;51.142;3.732;2024-02-21T02:47:47;18.27;;;5.88;;
59922;SDS011;45778;51.142;3.732;2024-02-21T02:50:13;10.85;;;3.83;;
59922;SDS011;45778;51.142;3.732;2024-02-21T02:52:39;10.38;;;4.15;;
59922;SDS011;45778;51.142;3.732;2024-02-21T02:55:05;14.75;;;5.40;;
59922;SDS011;45778;51.142;3.732;2024-02-21T02:57:31;16.15;;;6.05;;
59922;SDS011;45778;51.142;3.732;2024-02-21T02:59:57;18.10;;;4.47;;
59922;SDS011;45778;51.142;3.732;2024-02-21T03:02:23;13.13;;;4.90;;
59922;SDS011;45778;51.142;3.732;2024-02-21T03:04:50;9.60;;;4.40;;
59922;SDS011;45778;51.142;3.732;2024-02-21T03:07:16;14.05;;;5.43;;
59922;SDS011;45778;51.142;3.732;2024-02-21T03:09:42;12.63;;;5.20;;
59922;SDS011;45778;51.142;3.732;2024-02-21T03:12:08;19.90;;;5.65;;
59922;SDS011;45778;51.142;3.732;2024-02-21T03:14:34;15.48;;;5.05;;
59922;SDS011;45778;51.142;3.732;2024-02-21T03:17:00;18.27;;;5.60;;
59922;SDS011;45778;51.142;3.732;2024-02-21T03:19:27;14.80;;;4.60;;
59922;SDS011;45778;51.142;3.732;2024-02-21T03:21:54;15.27;;;5.05;;
59922;SDS011;45778;51.142;3.732;2024-02-21T03:24:20;14.80;;;5.40;;
59922;SDS011;45778;51.142;3.732;2024-02-21T03:26:46;14.20;;;4.50;;
59922;SDS011;45778;51.142;3.732;2024-02-21T03:29:14;14.63;;;5.65;;
59922;SDS011;45778;51.142;3.732;2024-02-21T03:31:40;14.95;;;4.50;;
59922;SDS011;45778;51.142;3.732;2024-02-21T03:34:05;19.25;;;5.00;;
59922;SDS011;45778;51.142;3.732;2024-02-21T03:36:31;16.20;;;4.90;;
59922;SDS011;45778;51.142;3.732;2024-02-21T03:38:57;14.63;;;4.88;;
59922;SDS011;45778;51.142;3.732;2024-02-21T03:41:23;18.88;;;4.90;;
59922;SDS011;45778;51.142;3.732;2024-02-21T03:43:48;17.15;;;4.50;;
59922;SDS011;45778;51.142;3.732;2024-02-21T03:46:14;23.08;;;5.38;;
59922;SDS011;45778;51.142;3.732;2024-02-21T03:48:40;15.98;;;5.20;;
59922;SDS011;45778;51.142;3.732;2024-02-21T03:51:06;13.85;;;5.65;;
59922;SDS011;45778;51.142;3.732;2024-02-21T03:53:31;18.75;;;5.90;;
59922;SDS011;45778;51.142;3.732;2024-02-21T03:55:57;16.83;;;4.60;;
59922;SDS011;45778;51.142;3.732;2024-02-21T03:58:28;14.85;;;4.28;;
59922;SDS011;45778;51.142;3.732;2024-02-21T04:00:53;14.05;;;5.00;;
59922;SDS011;45778;51.142;3.732;2024-02-21T04:03:19;16.05;;;5.88;;
59922;SDS011;45778;51.142;3.732;2024-02-21T04:05:45;16.27;;;5.85;;
59922;SDS011;45778;51.142;3.732;2024-02-21T04:08:11;11.82;;;5.30;;
59922;SDS011;45778;51.142;3.732;2024-02-21T04:10:36;13.45;;;5.53;;
59922;SDS011;45778;51.142;3.732;2024-02-21T04:13:02;13.98;;;4.97;;
59922;SDS011;45778;51.142;3.732;2024-02-21T04:15:28;13.30;;;5.32;;
59922;SDS011;45778;51.142;3.732;2024-02-21T04:17:54;13.70;;;5.57;;
59922;SDS011;45778;51.142;3.732;2024-02-21T04:20:20;16.58;;;5.20;;
59922;SDS011;45778;51.142;3.732;2024-02-21T04:22:45;14.38;;;5.88;;
59922;SDS011;45778;51.142;3.732;2024-02-21T04:25:11;8.88;;;5.38;;
59922;SDS011;45778;51.142;3.732;2024-02-21T04:27:40;13.85;;;6.90;;
59922;SDS011;45778;51.142;3.732;2024-02-21T04:30:07;13.35;;;6.07;;
59922;SDS011;45778;51.142;3.732;2024-02-21T04:32:34;18.02;;;5.85;;
59922;SDS011;45778;51.142;3.732;2024-02-21T04:35:00;17.50;;;6.28;;
59922;SDS011;45778;51.142;3.732;2024-02-21T04:37:26;19.17;;;6.25;;
59922;SDS011;45778;51.142;3.732;2024-02-21T04:39:51;11.30;;;6.10;;
59922;SDS011;45778;51.142;3.732;2024-02-21T04:42:17;15.85;;;6.20;;
59922;SDS011;45778;51.142;3.732;2024-02-21T04:44:43;16.38;;;6.22;;
59922;SDS011;45778;51.142;3.732;2024-02-21T04:47:08;16.70;;;5.80;;
59922;SDS011;45778;51.142;3.732;2024-02-21T04:49:35;17.55;;;5.95;;
59922;SDS011;45778;51.142;3.732;2024-02-21T04:52:00;16.45;;;5.93;;
59922;SDS011;45778;51.142;3.732;2024-02-21T04:54:26;18.55;;;6.75;;
59922;SDS011;45778;51.142;3.732;2024-02-21T04:56:52;11.90;;;5.85;;
59922;SDS011;45778;51.142;3.732;2024-02-21T04:59:18;17.65;;;6.18;;
59922;SDS011;45778;51.142;3.732;2024-02-21T05:01:44;16.85;;;6.90;;
59922;SDS011;45778;51.142;3.732;2024-02-21T05:04:09;25.25;;;8.10;;
59922;SDS011;45778;51.142;3.732;2024-02-21T05:06:38;11.48;;;5.22;;
59922;SDS011;45778;51.142;3.732;2024-02-21T05:09:05;16.05;;;6.53;;
59922;SDS011;45778;51.142;3.732;2024-02-21T05:11:31;18.23;;;5.70;;
59922;SDS011;45778;51.142;3.732;2024-02-21T05:13:56;15.52;;;6.88;;
59922;SDS011;45778;51.142;3.732;2024-02-21T05:16:22;14.40;;;4.95;;
59922;SDS011;45778;51.142;3.732;2024-02-21T05:18:48;18.33;;;7.10;;
59922;SDS011;45778;51.142;3.732;2024-02-21T05:21:14;15.35;;;6.30;;
59922;SDS011;45778;51.142;3.732;2024-02-21T05:23:40;18.83;;;6.88;;
59922;SDS011;45778;51.142;3.732;2024-02-21T05:26:06;16.08;;;7.57;;
59922;SDS011;45778;51.142;3.732;2024-02-21T05:28:32;9.30;;;5.55;;
59922;SDS011;45778;51.142;3.732;2024-02-21T05:30:57;13.52;;;6.15;;
59922;SDS011;45778;51.142;3.732;2024-02-21T05:33:23;13.95;;;6.07;;
59922;SDS011;45778;51.142;3.732;2024-02-21T05:35:50;14.23;;;7.55;;
59922;SDS011;45778;51.142;3.732;2024-02-21T05:38:16;18.55;;;7.25;;
59922;SDS011;45778;51.142;3.732;2024-02-21T05:40:42;9.55;;;6.38;;
59922;SDS011;45778;51.142;3.732;2024-02-21T05:43:09;10.20;;;5.78;;
59922;SDS011;45778;51.142;3.732;2024-02-21T05:45:35;17.65;;;7.35;;
59922;SDS011;45778;51.142;3.732;2024-02-21T05:48:01;18.88;;;6.45;;
59922;SDS011;45778;51.142;3.732;2024-02-21T05:50:27;14.55;;;6.60;;
59922;SDS011;45778;51.142;3.732;2024-02-21T05:52:56;21.00;;;7.75;;
59922;SDS011;45778;51.142;3.732;2024-02-21T05:55:22;18.50;;;7.43;;
59922;SDS011;45778;51.142;3.732;2024-02-21T05:57:48;14.68;;;6.95;;
59922;SDS011;45778;51.142;3.732;2024-02-21T06:00:18;16.05;;;6.50;;
59922;SDS011;45778;51.142;3.732;2024-02-21T06:02:43;15.70;;;6.82;;
59922;SDS011;45778;51.142;3.732;2024-02-21T06:05:09;16.65;;;6.68;;
59922;SDS011;45778;51.142;3.732;2024-02-21T06:07:35;21.45;;;7.45;;
59922;SDS011;45778;51.142;3.732;2024-02-21T06:10:04;14.73;;;6.57;;
59922;SDS011;45778;51.142;3.732;2024-02-21T06:12:30;13.02;;;6.68;;
59922;SDS011;45778;51.142;3.732;2024-02-21T06:14:55;16.52;;;7.60;;
59922;SDS011;45778;51.142;3.732;2024-02-21T06:17:21;16.67;;;6.63;;
59922;SDS011;45778;51.142;3.732;2024-02-21T06:19:47;14.98;;;7.45;;
59922;SDS011;45778;51.142;3.732;2024-02-21T06:22:12;18.27;;;7.10;;
59922;SDS011;45778;51.142;3.732;2024-02-21T06:24:38;12.85;;;6.50;;
59922;SDS011;45778;51.142;3.732;2024-02-21T06:27:04;16.85;;;7.60;;
59922;SDS011;45778;51.142;3.732;2024-02-21T06:29:31;11.50;;;6.65;;
59922;SDS011;45778;51.142;3.732;2024-02-21T06:31:57;15.85;;;5.93;;
59922;SDS011;45778;51.142;3.732;2024-02-21T06:34:23;17.00;;;6.32;;
59922;SDS011;45778;51.142;3.732;2024-02-21T06:36:49;11.73;;;6.78;;
59922;SDS011;45778;51.142;3.732;2024-02-21T06:39:15;15.48;;;7.18;;
59922;SDS011;45778;51.142;3.732;2024-02-21T06:41:41;15.05;;;7.45;;
59922;SDS011;45778;51.142;3.732;2024-02-21T06:44:07;12.85;;;7.32;;
59922;SDS011;45778;51.142;3.732;2024-02-21T06:46:32;21.58;;;7.90;;
59922;SDS011;45778;51.142;3.732;2024-02-21T06:48:58;14.13;;;7.85;;
59922;SDS011;45778;51.142;3.732;2024-02-21T06:51:31;13.18;;;7.72;;
59922;SDS011;45778;51.142;3.732;2024-02-21T06:53:57;18.67;;;7.93;;
59922;SDS011;45778;51.142;3.732;2024-02-21T06:56:23;16.70;;;8.07;;
59922;SDS011;45778;51.142;3.732;2024-02-21T06:58:53;19.25;;;7.95;;
59922;SDS011;45778;51.142;3.732;2024-02-21T07:01:20;12.55;;;7.60;;
59922;SDS011;45778;51.142;3.732;2024-02-21T07:03:46;18.88;;;8.40;;
59922;SDS011;45778;51.142;3.732;2024-02-21T07:06:11;14.68;;;7.45;;
59922;SDS011;45778;51.142;3.732;2024-02-21T07:08:37;14.50;;;7.45;;
59922;SDS011;45778;51.142;3.732;2024-02-21T07:11:04;20.95;;;8.48;;
59922;SDS011;45778;51.142;3.732;2024-02-21T07:13:30;12.70;;;7.30;;
59922;SDS011;45778;51.142;3.732;2024-02-21T07:15:57;17.80;;;7.95;;
59922;SDS011;45778;51.142;3.732;2024-02-21T07:18:23;19.40;;;7.63;;
59922;SDS011;45778;51.142;3.732;2024-02-21T07:20:50;14.65;;;8.32;;
59922;SDS011;45778;51.142;3.732;2024-02-21T07:23:16;14.45;;;7.13;;
59922;SDS011;45778;51.142;3.732;2024-02-21T07:25:43;12.80;;;6.20;;
59922;SDS011;45778;51.142;3.732;2024-02-21T07:28:08;23.10;;;8.07;;
59922;SDS011;45778;51.142;3.732;2024-02-21T07:30:34;14.25;;;7.43;;
59922;SDS011;45778;51.142;3.732;2024-02-21T07:33:00;14.93;;;8.77;;
59922;SDS011;45778;51.142;3.732;2024-02-21T07:35:26;18.35;;;9.07;;
59922;SDS011;45778;51.142;3.732;2024-02-21T07:37:52;14.25;;;7.75;;
59922;SDS011;45778;51.142;3.732;2024-02-21T07:40:17;17.05;;;7.95;;
59922;SDS011;45778;51.142;3.732;2024-02-21T07:42:43;13.60;;;7.40;;
59922;SDS011;45778;51.142;3.732;2024-02-21T07:45:09;15.32;;;7.53;;
59922;SDS011;45778;51.142;3.732;2024-02-21T07:47:36;17.02;;;8.55;;
59922;SDS011;45778;51.142;3.732;2024-02-21T07:50:02;12.88;;;7.53;;
59922;SDS011;45778;51.142;3.732;2024-02-21T07:52:28;14.15;;;7.05;;
59922;SDS011;45778;51.142;3.732;2024-02-21T07:54:54;15.35;;;8.18;;
59922;SDS011;45778;51.142;3.732;2024-02-21T07:57:19;14.80;;;7.70;;
59922;SDS011;45778;51.142;3.732;2024-02-21T07:59:45;10.05;;;7.35;;
59922;SDS011;45778;51.142;3.732;2024-02-21T08:02:13;14.93;;;7.75;;
59922;SDS011;45778;51.142;3.732;2024-02-21T08:04:42;14.98;;;8.10;;
59922;SDS011;45778;51.142;3.732;2024-02-21T08:07:07;16.55;;;7.72;;
59922;SDS011;45778;51.142;3.732;2024-02-21T08:09:34;16.17;;;8.48;;
59922;SDS011;45778;51.142;3.732;2024-02-21T08:12:01;14.80;;;8.48;;
59922;SDS011;45778;51.142;3.732;2024-02-21T08:14:27;15.13;;;9.02;;
59922;SDS011;45778;51.142;3.732;2024-02-21T08:16:52;18.10;;;7.85;;
59922;SDS011;45778;51.142;3.732;2024-02-21T08:19:20;17.73;;;8.55;;
59922;SDS011;45778;51.142;3.732;2024-02-21T08:21:46;17.13;;;8.15;;
59922;SDS011;45778;51.142;3.732;2024-02-21T08:24:12;13.68;;;8.63;;
59922;SDS011;45778;51.142;3.732;2024-02-21T08:26:40;15.35;;;8.05;;
59922;SDS011;45778;51.142;3.732;2024-02-21T08:29:06;14.55;;;7.28;;
59922;SDS011;45778;51.142;3.732;2024-02-21T08:31:32;14.98;;;8.20;;
59922;SDS011;45778;51.142;3.732;2024-02-21T08:34:02;16.35;;;7.18;;
59922;SDS011;45778;51.142;3.732;2024-02-21T08:36:29;16.50;;;8.10;;
59922;SDS011;45778;51.142;3.732;2024-02-21T08:38:55;15.77;;;8.93;;
59922;SDS011;45778;51.142;3.732;2024-02-21T08:41:22;16.00;;;8.35;;
59922;SDS011;45778;51.142;3.732;2024-02-21T08:43:49;15.10;;;8.07;;
59922;SDS011;45778;51.142;3.732;2024-02-21T08:46:21;16.65;;;9.05;;
59922;SDS011;45778;51.142;3.732;2024-02-21T08:48:49;16.13;;;8.65;;
59922;SDS011;45778;51.142;3.732;2024-02-21T08:51:17;15.55;;;7.60;;
59922;SDS011;45778;51.142;3.732;2024-02-21T08:53:46;10.82;;;5.93;;
59922;SDS011;45778;51.142;3.732;2024-02-21T08:56:12;15.30;;;8.45;;
59922;SDS011;45778;51.142;3.732;2024-02-21T08:58:39;19.05;;;8.40;;
59922;SDS011;45778;51.142;3.732;2024-02-21T09:01:05;13.13;;;8.43;;
59922;SDS011;45778;51.142;3.732;2024-02-21T09:03:35;12.57;;;7.07;;
59922;SDS011;45778;51.142;3.732;2024-02-21T09:06:02;13.90;;;6.85;;
59922;SDS011;45778;51.142;3.732;2024-02-21T09:08:27;11.35;;;6.15;;
59922;SDS011;45778;51.142;3.732;2024-02-21T09:10:53;15.60;;;6.88;;
59922;SDS011;45778;51.142;3.732;2024-02-21T09:13:19;20.67;;;8.20;;
59922;SDS011;45778;51.142;3.732;2024-02-21T09:15:44;12.88;;;8.18;;
59922;SDS011;45778;51.142;3.732;2024-02-21T09:18:10;13.57;;;8.35;;
59922;SDS011;45778;51.142;3.732;2024-02-21T09:20:37;16.58;;;7.30;;
59922;SDS011;45778;51.142;3.732;2024-02-21T09:23:03;16.08;;;8.18;;
59922;SDS011;45778;51.142;3.732;2024-02-21T09:25:29;11.55;;;7.25;;
59922;SDS011;45778;51.142;3.732;2024-02-21T09:27:55;14.40;;;7.82;;
59922;SDS011;45778;51.142;3.732;2024-02-21T09:30:23;15.45;;;7.53;;
59922;SDS011;45778;51.142;3.732;2024-02-21T09:32:48;15.77;;;7.68;;
59922;SDS011;45778;51.142;3.732;2024-02-21T09:35:14;12.52;;;6.63;;
59922;SDS011;45778;51.142;3.732;2024-02-21T09:37:40;12.70;;;6.88;;
59922;SDS011;45778;51.142;3.732;2024-02-21T09:40:06;10.43;;;5.75;;
59922;SDS011;45778;51.142;3.732;2024-02-21T09:42:40;10.10;;;6.55;;
59922;SDS011;45778;51.142;3.732;2024-02-21T09:45:15;19.02;;;6.85;;
59922;SDS011;45778;51.142;3.732;2024-02-21T09:50:26;13.60;;;6.57;;
59922;SDS011;45778;51.142;3.732;2024-02-21T09:52:54;11.20;;;6.82;;
59922;SDS011;45778;51.142;3.732;2024-02-21T09:55:21;14.70;;;6.82;;
59922;SDS011;45778;51.142;3.732;2024-02-21T09:57:48;14.13;;;6.45;;
59922;SDS011;45778;51.142;3.732;2024-02-21T10:00:15;18.42;;;6.35;;
59922;SDS011;45778;51.142;3.732;2024-02-21T10:02:47;8.63;;;4.20;;
59922;SDS011;45778;51.142;3.732;2024-02-21T10:05:14;11.77;;;5.53;;
59922;SDS011;45778;51.142;3.732;2024-02-21T10:07:40;13.35;;;6.22;;
59922;SDS011;45778;51.142;3.732;2024-02-21T10:10:06;14.20;;;5.03;;
59922;SDS011;45778;51.142;3.732;2024-02-21T10:12:32;12.25;;;4.38;;
59922;SDS011;45778;51.142;3.732;2024-02-21T10:15:05;7.65;;;4.78;;
59922;SDS011;45778;51.142;3.732;2024-02-21T10:17:34;10.07;;;4.95;;
59922;SDS011;45778;51.142;3.732;2024-02-21T10:20:08;10.13;;;5.25;;
59922;SDS011;45778;51.142;3.732;2024-02-21T10:22:34;11.20;;;5.03;;
59922;SDS011;45778;51.142;3.732;2024-02-21T10:25:11;11.52;;;5.68;;
59922;SDS011;45778;51.142;3.732;2024-02-21T10:27:41;15.40;;;5.88;;
59922;SDS011;45778;51.142;3.732;2024-02-21T10:30:07;7.90;;;4.45;;
59922;SDS011;45778;51.142;3.732;2024-02-21T10:32:50;9.57;;;5.97;;
59922;SDS011;45778;51.142;3.732;2024-02-21T10:35:30;13.02;;;4.45;;
59922;SDS011;45778;51.142;3.732;2024-02-21T10:37:59;11.70;;;4.38;;
59922;SDS011;45778;51.142;3.732;2024-02-21T10:40:26;6.22;;;4.57;;
59922;SDS011;45778;51.142;3.732;2024-02-21T10:42:58;8.43;;;4.35;;
59922;SDS011;45778;51.142;3.732;2024-02-21T10:45:32;6.78;;;4.40;;
59922;SDS011;45778;51.142;3.732;2024-02-21T10:48:08;8.45;;;4.75;;
59922;SDS011;45778;51.142;3.732;2024-02-21T10:50:57;8.15;;;4.07;;
59922;SDS011;45778;51.142;3.732;2024-02-21T10:53:47;9.30;;;4.43;;
59922;SDS011;45778;51.142;3.732;2024-02-21T10:56:36;5.65;;;3.83;;
59922;SDS011;45778;51.142;3.732;2024-02-21T10:59:06;8.88;;;5.00;;
59922;SDS011;45778;51.142;3.732;2024-02-21T11:01:33;7.20;;;4.10;;
59922;SDS011;45778;51.142;3.732;2024-02-21T11:04:01;8.80;;;5.82;;
59922;SDS011;45778;51.142;3.732;2024-02-21T11:06:29;10.75;;;5.28;;
59922;SDS011;45778;51.142;3.732;2024-02-21T11:09:07;10.10;;;4.47;;
59922;SDS011;45778;51.142;3.732;2024-02-21T11:11:35;8.00;;;6.05;;
59922;SDS011;45778;51.142;3.732;2024-02-21T11:14:11;10.68;;;7.00;;
59922;SDS011;45778;51.142;3.732;2024-02-21T11:16:44;9.35;;;6.60;;
59922;SDS011;45778;51.142;3.732;2024-02-21T11:19:20;13.80;;;5.75;;
59922;SDS011;45778;51.142;3.732;2024-02-21T11:21:47;9.65;;;5.82;;
59922;SDS011;45778;51.142;3.732;2024-02-21T11:24:13;11.13;;;6.68;;
59922;SDS011;45778;51.142;3.732;2024-02-21T11:26:50;16.75;;;5.03;;
59922;SDS011;45778;51.142;3.732;2024-02-21T11:29:15;5.82;;;4.28;;
59922;SDS011;45778;51.142;3.732;2024-02-21T11:31:48;11.30;;;5.13;;
59922;SDS011;45778;51.142;3.732;2024-02-21T11:34:17;14.13;;;5.20;;
59922;SDS011;45778;51.142;3.732;2024-02-21T11:36:47;5.47;;;3.53;;
59922;SDS011;45778;51.142;3.732;2024-02-21T11:39:24;8.63;;;4.35;;
59922;SDS011;45778;51.142;3.732;2024-02-21T11:42:03;8.57;;;3.88;;
59922;SDS011;45778;51.142;3.732;2024-02-21T11:44:31;11.45;;;4.55;;
59922;SDS011;45778;51.142;3.732;2024-02-21T11:46:57;7.88;;;3.10;;
59922;SDS011;45778;51.142;3.732;2024-02-21T11:49:35;7.60;;;3.45;;
59922;SDS011;45778;51.142;3.732;2024-02-21T11:52:10;7.22;;;4.22;;
59922;SDS011;45778;51.142;3.732;2024-02-21T11:54:36;6.68;;;3.80;;
59922;SDS011;45778;51.142;3.732;2024-02-21T11:57:02;6.57;;;3.53;;
59922;SDS011;45778;51.142;3.732;2024-02-21T11:59:32;4.90;;;2.53;;
59922;SDS011;45778;51.142;3.732;2024-02-21T12:02:01;6.80;;;4.15;;
59922;SDS011;45778;51.142;3.732;2024-02-21T12:04:28;8.02;;;3.10;;
59922;SDS011;45778;51.142;3.732;2024-02-21T12:06:56;9.20;;;4.32;;
59922;SDS011;45778;51.142;3.732;2024-02-21T12:09:23;3.90;;;2.55;;
59922;SDS011;45778;51.142;3.732;2024-02-21T12:11:58;10.55;;;4.03;;
59922;SDS011;45778;51.142;3.732;2024-02-21T12:14:25;7.32;;;4.15;;
59922;SDS011;45778;51.142;3.732;2024-02-21T12:16:53;7.28;;;4.38;;
59922;SDS011;45778;51.142;3.732;2024-02-21T12:19:19;11.30;;;4.03;;
59922;SDS011;45778;51.142;3.732;2024-02-21T12:21:45;9.85;;;3.97;;
59922;SDS011;45778;51.142;3.732;2024-02-21T12:24:21;6.78;;;4.35;;
59922;SDS011;45778;51.142;3.732;2024-02-21T12:26:48;7.70;;;4.20;;
59922;SDS011;45778;51.142;3.732;2024-02-21T12:29:14;6.05;;;3.85;;
59922;SDS011;45778;51.142;3.732;2024-02-21T12:31:40;9.00;;;3.95;;
59922;SDS011;45778;51.142;3.732;2024-02-21T12:34:06;4.93;;;2.78;;
59922;SDS011;45778;51.142;3.732;2024-02-21T12:36:32;8.48;;;3.70;;
59922;SDS011;45778;51.142;3.732;2024-02-21T12:38:58;6.15;;;3.50;;
59922;SDS011;45778;51.142;3.732;2024-02-21T12:41:25;7.90;;;4.30;;
59922;SDS011;45778;51.142;3.732;2024-02-21T12:43:52;11.88;;;4.65;;
59922;SDS011;45778;51.142;3.732;2024-02-21T12:46:18;7.55;;;4.80;;
59922;SDS011;45778;51.142;3.732;2024-02-21T12:48:43;7.45;;;4.03;;
59922;SDS011;45778;51.142;3.732;2024-02-21T12:51:09;7.07;;;4.00;;
59922;SDS011;45778;51.142;3.732;2024-02-21T12:53:35;6.00;;;3.83;;
59922;SDS011;45778;51.142;3.732;2024-02-21T12:56:01;9.15;;;4.10;;
59922;SDS011;45778;51.142;3.732;2024-02-21T12:58:27;4.63;;;2.72;;
59922;SDS011;45778;51.142;3.732;2024-02-21T13:00:53;5.32;;;2.97;;
59922;SDS011;45778;51.142;3.732;2024-02-21T13:03:19;6.07;;;3.78;;
59922;SDS011;45778;51.142;3.732;2024-02-21T13:05:46;5.97;;;4.25;;
59922;SDS011;45778;51.142;3.732;2024-02-21T13:08:13;7.07;;;3.78;;
59922;SDS011;45778;51.142;3.732;2024-02-21T13:10:39;6.05;;;3.83;;
59922;SDS011;45778;51.142;3.732;2024-02-21T13:13:04;6.57;;;3.67;;
59922;SDS011;45778;51.142;3.732;2024-02-21T13:15:30;6.20;;;3.13;;
59922;SDS011;45778;51.142;3.732;2024-02-21T13:17:56;6.82;;;3.92;;
59922;SDS011;45778;51.142;3.732;2024-02-21T13:20:25;5.68;;;3.53;;
59922;SDS011;45778;51.142;3.732;2024-02-21T13:22:51;6.68;;;3.90;;
59922;SDS011;45778;51.142;3.732;2024-02-21T13:25:17;5.43;;;3.70;;
59922;SDS011;45778;51.142;3.732;2024-02-21T13:27:45;7.40;;;5.00;;
59922;SDS011;45778;51.142;3.732;2024-02-21T13:30:11;9.05;;;4.70;;
59922;SDS011;45778;51.142;3.732;2024-02-21T13:32:37;8.75;;;5.38;;
59922;SDS011;45778;51.142;3.732;2024-02-21T13:35:04;7.90;;;5.00;;
59922;SDS011;45778;51.142;3.732;2024-02-21T13:37:30;10.60;;;5.57;;
59922;SDS011;45778;51.142;3.732;2024-02-21T13:39:56;9.43;;;6.60;;
59922;SDS011;45778;51.142;3.732;2024-02-21T13:42:22;12.02;;;5.90;;
59922;SDS011;45778;51.142;3.732;2024-02-21T13:44:48;7.45;;;5.10;;
59922;SDS011;45778;51.142;3.732;2024-02-21T13:47:14;8.88;;;5.45;;
59922;SDS011;45778;51.142;3.732;2024-02-21T13:49:40;8.77;;;5.38;;
59922;SDS011;45778;51.142;3.732;2024-02-21T13:52:06;9.15;;;5.20;;
59922;SDS011;45778;51.142;3.732;2024-02-21T13:54:32;7.20;;;5.18;;
59922;SDS011;45778;51.142;3.732;2024-02-21T13:56:57;10.27;;;5.30;;
59922;SDS011;45778;51.142;3.732;2024-02-21T13:59:23;10.32;;;5.43;;
59922;SDS011;45778;51.142;3.732;2024-02-21T14:01:51;6.22;;;4.85;;
59922;SDS011;45778;51.142;3.732;2024-02-21T14:04:17;11.13;;;5.80;;
59922;SDS011;45778;51.142;3.732;2024-02-21T14:06:42;10.88;;;5.80;;
59922;SDS011;45778;51.142;3.732;2024-02-21T14:09:14;10.35;;;4.82;;
59922;SDS011;45778;51.142;3.732;2024-02-21T14:11:40;14.75;;;5.75;;
59922;SDS011;45778;51.142;3.732;2024-02-21T14:14:07;10.68;;;5.05;;
59922;SDS011;45778;51.142;3.732;2024-02-21T14:16:33;9.82;;;5.45;;
59922;SDS011;45778;51.142;3.732;2024-02-21T14:18:59;12.65;;;6.40;;
59922;SDS011;45778;51.142;3.732;2024-02-21T14:21:25;10.05;;;5.18;;
59922;SDS011;45778;51.142;3.732;2024-02-21T14:23:50;11.80;;;5.28;;
59922;SDS011;45778;51.142;3.732;2024-02-21T14:26:17;8.48;;;5.10;;
59922;SDS011;45778;51.142;3.732;2024-02-21T14:28:43;10.95;;;3.83;;
59922;SDS011;45778;51.142;3.732;2024-02-21T14:31:10;6.90;;;4.53;;
59922;SDS011;45778;51.142;3.732;2024-02-21T14:33:36;12.55;;;5.18;;
59922;SDS011;45778;51.142;3.732;2024-02-21T14:36:02;6.47;;;4.75;;
59922;SDS011;45778;51.142;3.732;2024-02-21T14:38:28;7.05;;;3.90;;
59922;SDS011;45778;51.142;3.732;2024-02-21T14:40:54;10.55;;;4.00;;